createdAt,value
2023-02-13T00:00:55.794Z,1.60
2023-02-13T00:01:57.682Z,1.60
2023-02-13T00:02:59.155Z,1.60
2023-02-13T00:04:00.823Z,1.60
2023-02-13T00:05:02.847Z,1.60
2023-02-13T00:06:04.572Z,1.70
2023-02-13T00:07:06.212Z,1.60
2023-02-13T00:08:07.626Z,1.60
2023-02-13T00:09:11.086Z,1.70
2023-02-13T00:10:13.124Z,1.60
2023-02-13T00:11:15.070Z,1.60
2023-02-13T00:12:17.084Z,1.50
2023-02-13T00:13:18.590Z,1.50
2023-02-13T00:14:20.023Z,1.50
2023-02-13T00:15:21.614Z,1.50
2023-02-13T00:16:23.076Z,1.50
2023-02-13T00:17:25.424Z,1.50
2023-02-13T00:18:28.309Z,1.50
2023-02-13T00:19:29.834Z,1.50
2023-02-13T00:20:31.353Z,1.50
2023-02-13T00:21:33.213Z,1.40
2023-02-13T00:22:38.710Z,1.50
2023-02-13T00:23:40.802Z,1.50
2023-02-13T00:24:42.671Z,1.50
2023-02-13T00:25:44.032Z,1.50
2023-02-13T00:26:45.589Z,1.60
2023-02-13T00:27:47.050Z,1.60
2023-02-13T00:28:48.565Z,1.60
2023-02-13T00:29:50.346Z,1.60
2023-02-13T00:30:51.908Z,1.60
2023-02-13T00:31:55.181Z,1.60
2023-02-13T00:32:57.190Z,1.50
2023-02-13T00:33:59.774Z,1.50
2023-02-13T00:35:02.114Z,1.60
2023-02-13T00:36:04.859Z,1.50
2023-02-13T00:37:06.385Z,1.50
2023-02-13T00:38:07.831Z,1.50
2023-02-13T00:39:12.379Z,1.60
2023-02-13T00:40:14.397Z,1.50
2023-02-13T00:41:17.389Z,1.50
2023-02-13T00:42:19.242Z,1.40
2023-02-13T00:43:21.232Z,1.50
2023-02-13T00:44:23.195Z,1.50
2023-02-13T00:45:24.696Z,1.50
2023-02-13T00:46:26.261Z,1.50
2023-02-13T00:47:28.283Z,1.50
2023-02-13T00:48:31.171Z,1.60
2023-02-13T00:49:32.985Z,1.60
2023-02-13T00:50:36.227Z,1.60
2023-02-13T00:51:38.023Z,1.60
2023-02-13T00:52:39.569Z,1.60
2023-02-13T00:53:41.630Z,1.60
2023-02-13T00:54:43.114Z,1.50
2023-02-13T00:55:44.847Z,1.50
2023-02-13T00:56:46.341Z,1.60
2023-02-13T00:57:48.224Z,1.60
2023-02-13T00:58:49.706Z,1.60
2023-02-13T00:59:51.877Z,1.60
2023-02-13T01:00:54.658Z,1.50
2023-02-13T01:01:56.503Z,1.50
2023-02-13T01:02:58.046Z,1.50
2023-02-13T01:03:59.547Z,1.40
2023-02-13T01:05:02.903Z,1.40
2023-02-13T01:06:05.075Z,1.50
2023-02-13T01:07:07.485Z,1.50
2023-02-13T01:08:10.663Z,1.50
2023-02-13T01:09:12.418Z,1.50
2023-02-13T01:10:13.867Z,1.50
2023-02-13T01:11:16.123Z,1.50
2023-02-13T01:12:18.786Z,1.60
2023-02-13T01:13:20.601Z,1.60
2023-02-13T01:14:22.116Z,1.70
2023-02-13T01:15:24.683Z,1.70
2023-02-13T01:16:26.309Z,1.60
2023-02-13T01:17:28.197Z,1.60
2023-02-13T01:18:31.286Z,1.60
2023-02-13T01:19:33.189Z,1.70
2023-02-13T01:20:34.746Z,1.60
2023-02-13T01:21:36.201Z,1.60
2023-02-13T01:22:37.933Z,1.60
2023-02-13T01:23:39.957Z,1.50
2023-02-13T01:24:41.450Z,1.50
2023-02-13T01:25:43.091Z,1.60
2023-02-13T01:26:44.736Z,1.50
2023-02-13T01:27:47.762Z,1.50
2023-02-13T01:28:54.845Z,1.50
2023-02-13T01:29:56.327Z,1.50
2023-02-13T01:30:59.800Z,1.50
2023-02-13T01:32:04.674Z,1.50
2023-02-13T01:33:06.236Z,1.50
2023-02-13T01:34:07.796Z,1.60
2023-02-13T01:35:10.723Z,1.60
2023-02-13T01:36:14.449Z,1.60
2023-02-13T01:37:15.961Z,1.60
2023-02-13T01:38:17.841Z,1.60
2023-02-13T01:39:19.492Z,1.60
2023-02-13T01:40:21.321Z,1.60
2023-02-13T01:41:24.024Z,1.50
2023-02-13T01:42:28.686Z,1.50
2023-02-13T01:43:58.121Z,1.40
2023-02-13T01:45:04.981Z,1.40
2023-02-13T01:46:06.507Z,1.50
2023-02-13T01:47:11.420Z,1.50
2023-02-13T01:48:17.880Z,1.50
2023-02-13T01:49:23.322Z,1.50
2023-02-13T01:50:34.218Z,1.40
2023-02-13T01:51:36.740Z,1.40
2023-02-13T01:52:41.295Z,1.40
2023-02-13T01:53:47.901Z,1.50
2023-02-13T01:54:49.975Z,1.40
2023-02-13T01:56:08.484Z,1.40
2023-02-13T01:57:16.170Z,1.50
2023-02-13T01:58:22.520Z,1.50
2023-02-13T01:59:31.753Z,1.50
2023-02-13T02:00:34.364Z,1.50
2023-02-13T02:01:37.613Z,1.50
2023-02-13T02:02:44.859Z,1.50
2023-02-13T02:03:54.392Z,1.60
2023-02-13T02:04:56.313Z,1.50
2023-02-13T02:06:00.222Z,1.50
2023-02-13T02:07:25.938Z,1.40
2023-02-13T02:08:28.479Z,1.50
2023-02-13T02:09:35.349Z,1.50
2023-02-13T02:10:37.941Z,1.50
2023-02-13T02:11:55.194Z,1.60
2023-02-13T02:13:14.385Z,1.50
2023-02-13T02:14:16.164Z,1.40
2023-02-13T02:15:18.154Z,1.40
2023-02-13T02:16:20.173Z,1.40
2023-02-13T02:17:24.503Z,1.50
2023-02-13T02:18:26.151Z,1.40
2023-02-13T02:19:53.813Z,1.50
2023-02-13T02:21:03.828Z,1.50
2023-02-13T02:22:17.714Z,1.40
2023-02-13T02:23:28.091Z,1.40
2023-02-13T02:25:01.966Z,1.40
2023-02-13T02:26:16.708Z,1.40
2023-02-13T02:27:47.229Z,1.40
2023-02-13T02:28:51.505Z,1.40
2023-02-13T02:29:53.142Z,1.30
2023-02-13T02:31:03.805Z,1.30
2023-02-13T02:32:17.239Z,1.30
2023-02-13T02:33:24.269Z,1.30
2023-02-13T02:34:47.945Z,1.30
2023-02-13T02:36:10.552Z,1.30
2023-02-13T02:37:36.479Z,1.40
2023-02-13T02:38:40.985Z,1.30
2023-02-13T02:40:03.258Z,1.30
2023-02-13T02:41:36.945Z,1.30
2023-02-13T02:42:50.296Z,1.30
2023-02-13T02:44:04.166Z,1.30
2023-02-13T02:45:08.500Z,1.30
2023-02-13T02:46:21.745Z,1.30
2023-02-13T02:47:55.352Z,1.30
2023-02-13T02:49:17.064Z,1.20
2023-02-13T02:50:36.522Z,1.20
2023-02-13T02:52:17.022Z,1.20
2023-02-13T02:53:47.013Z,1.20
2023-02-13T02:55:07.428Z,1.20
2023-02-13T02:56:21.469Z,1.10
2023-02-13T02:57:48.721Z,1.10
2023-02-13T02:59:19.370Z,1.10
2023-02-13T03:00:43.181Z,1.00
2023-02-13T03:02:04.997Z,1.10
2023-02-13T03:03:39.770Z,1.00
2023-02-13T03:05:04.425Z,1.10
2023-02-13T03:06:44.154Z,1.10
2023-02-13T03:07:45.751Z,1.10
2023-02-13T03:09:16.046Z,1.10
2023-02-13T03:10:47.328Z,1.00
2023-02-13T03:12:14.118Z,1.10
2023-02-13T03:13:31.155Z,1.00
2023-02-13T03:14:32.698Z,1.00
2023-02-13T03:15:57.082Z,1.00
2023-02-13T03:17:17.191Z,1.00
2023-02-13T03:18:44.889Z,0.90
2023-02-13T03:20:16.976Z,0.90
2023-02-13T03:21:51.930Z,0.90
2023-02-13T03:23:00.371Z,0.90
2023-02-13T03:24:17.517Z,0.90
2023-02-13T03:25:35.840Z,0.90
2023-02-13T03:26:56.440Z,0.80
2023-02-13T03:28:41.262Z,0.80
2023-02-13T03:30:08.384Z,0.80
2023-02-13T03:31:21.137Z,0.80
2023-02-13T03:32:31.798Z,0.80
2023-02-13T03:33:36.565Z,0.80
2023-02-13T03:35:07.579Z,0.90
2023-02-13T03:36:42.631Z,1.00
2023-02-13T03:37:56.215Z,1.00
2023-02-13T03:39:18.095Z,1.00
2023-02-13T03:40:27.979Z,1.00
2023-02-13T03:41:38.574Z,0.90
2023-02-13T03:42:49.217Z,0.90
2023-02-13T03:44:12.218Z,0.90
2023-02-13T03:45:39.664Z,1.00
2023-02-13T03:46:48.350Z,1.00
2023-02-13T03:47:52.806Z,1.10
2023-02-13T03:49:31.484Z,1.00
2023-02-13T03:50:33.151Z,1.00
2023-02-13T03:51:43.989Z,1.10
2023-02-13T03:52:48.576Z,1.00
2023-02-13T03:53:56.042Z,1.00
2023-02-13T03:55:22.136Z,1.00
2023-02-13T03:56:44.917Z,1.00
2023-02-13T03:58:06.796Z,1.10
2023-02-13T03:59:18.872Z,1.00
2023-02-13T04:00:22.484Z,0.90
2023-02-13T04:01:28.540Z,1.00
2023-02-13T04:02:35.647Z,1.00
2023-02-13T04:03:56.272Z,1.00
2023-02-13T04:05:08.957Z,1.00
2023-02-13T04:06:20.892Z,1.00
2023-02-13T04:07:30.825Z,1.00
2023-02-13T04:08:32.840Z,1.10
2023-02-13T04:09:38.750Z,1.10
2023-02-13T04:10:51.286Z,1.00
2023-02-13T04:12:13.083Z,1.00
2023-02-13T04:13:33.609Z,1.00
2023-02-13T04:14:59.943Z,1.00
2023-02-13T04:16:13.621Z,1.10
2023-02-13T04:17:39.249Z,1.00
2023-02-13T04:18:41.153Z,1.00
2023-02-13T04:19:42.989Z,1.00
2023-02-13T04:20:44.640Z,1.00
2023-02-13T04:21:55.636Z,0.90
2023-02-13T04:22:57.299Z,1.00
2023-02-13T04:23:58.658Z,1.00
2023-02-13T04:25:00.528Z,0.90
2023-02-13T04:26:12.173Z,0.90
2023-02-13T04:27:16.372Z,1.00
2023-02-13T04:28:17.936Z,0.90
2023-02-13T04:29:21.129Z,1.00
2023-02-13T04:30:22.656Z,1.00
2023-02-13T04:31:24.174Z,1.00
2023-02-13T04:32:25.677Z,1.00
2023-02-13T04:33:27.112Z,1.00
2023-02-13T04:34:28.457Z,0.90
2023-02-13T04:35:29.865Z,0.90
2023-02-13T04:36:32.172Z,0.90
2023-02-13T04:37:33.630Z,0.90
2023-02-13T04:38:35.086Z,0.80
2023-02-13T04:39:36.695Z,0.80
2023-02-13T04:40:38.220Z,0.80
2023-02-13T04:41:39.953Z,0.90
2023-02-13T04:42:41.760Z,1.00
2023-02-13T04:43:43.262Z,1.00
2023-02-13T04:44:44.912Z,1.00
2023-02-13T04:45:50.081Z,1.10
2023-02-13T04:46:51.560Z,1.00
2023-02-13T04:47:54.921Z,1.00
2023-02-13T04:48:56.408Z,0.90
2023-02-13T04:49:57.830Z,1.00
2023-02-13T04:50:59.498Z,0.90
2023-02-13T04:52:01.089Z,1.00
2023-02-13T04:53:02.860Z,1.00
2023-02-13T04:54:04.442Z,0.90
2023-02-13T04:55:06.236Z,0.90
2023-02-13T04:56:07.825Z,0.80
2023-02-13T04:57:09.661Z,0.80
2023-02-13T04:58:11.244Z,0.80
2023-02-13T04:59:12.664Z,0.80
2023-02-13T05:00:14.686Z,0.80
2023-02-13T05:01:17.068Z,0.80
2023-02-13T05:02:18.770Z,0.70
2023-02-13T05:03:20.216Z,0.70
2023-02-13T05:04:21.704Z,0.70
2023-02-13T05:05:23.280Z,0.80
2023-02-13T05:06:24.704Z,0.80
2023-02-13T05:07:26.245Z,0.90
2023-02-13T05:08:27.631Z,0.90
2023-02-13T05:09:29.070Z,0.90
2023-02-13T05:10:30.939Z,0.90
2023-02-13T05:11:32.523Z,0.90
2023-02-13T05:12:34.502Z,0.90
2023-02-13T05:13:36.165Z,0.80
2023-02-13T05:14:37.626Z,0.80
2023-02-13T05:15:39.235Z,0.80
2023-02-13T05:16:40.706Z,0.80
2023-02-13T05:17:46.598Z,0.80
2023-02-13T05:18:48.048Z,0.80
2023-02-13T05:19:49.516Z,0.80
2023-02-13T05:21:11.633Z,0.80
2023-02-13T05:22:31.607Z,0.80
2023-02-13T05:23:33.057Z,0.90
2023-02-13T05:24:34.445Z,0.80
2023-02-13T05:25:37.888Z,0.80
2023-02-13T05:26:39.311Z,0.70
2023-02-13T05:27:41.012Z,0.80
2023-02-13T05:29:01.556Z,0.80
2023-02-13T05:30:03.354Z,0.80
2023-02-13T05:31:05.247Z,0.80
2023-02-13T05:32:07.039Z,0.90
2023-02-13T05:33:08.484Z,0.90
2023-02-13T05:34:09.958Z,0.80
2023-02-13T05:35:11.429Z,0.80
2023-02-13T05:36:12.869Z,0.80
2023-02-13T05:37:14.764Z,0.80
2023-02-13T05:38:16.479Z,0.80
2023-02-13T05:39:18.457Z,0.80
2023-02-13T05:40:21.767Z,0.80
2023-02-13T05:41:23.693Z,0.80
2023-02-13T05:42:25.305Z,0.80
2023-02-13T05:43:28.088Z,0.80
2023-02-13T05:44:29.852Z,0.70
2023-02-13T05:45:31.424Z,0.70
2023-02-13T05:46:33.731Z,0.70
2023-02-13T05:47:35.626Z,0.70
2023-02-13T05:48:37.320Z,0.70
2023-02-13T05:49:38.835Z,0.70
2023-02-13T05:50:40.224Z,0.70
2023-02-13T05:51:42.925Z,0.70
2023-02-13T05:52:44.349Z,0.70
2023-02-13T05:53:45.953Z,0.70
2023-02-13T05:54:47.362Z,0.70
2023-02-13T05:55:50.915Z,0.70
2023-02-13T05:56:52.918Z,0.80
2023-02-13T05:57:58.036Z,0.80
2023-02-13T05:58:59.597Z,0.80
2023-02-13T06:00:01.099Z,0.80
2023-02-13T06:01:03.244Z,0.80
2023-02-13T06:02:04.623Z,0.80
2023-02-13T06:03:06.124Z,0.80
2023-02-13T06:04:08.163Z,0.80
2023-02-13T06:05:09.656Z,0.80
2023-02-13T06:06:11.117Z,0.80
2023-02-13T06:07:12.747Z,0.80
2023-02-13T06:08:14.870Z,0.80
2023-02-13T06:09:16.256Z,0.80
2023-02-13T06:10:17.799Z,0.80
2023-02-13T06:11:19.678Z,0.80
2023-02-13T06:12:21.204Z,0.80
2023-02-13T06:13:22.755Z,0.80
2023-02-13T06:14:24.214Z,0.80
2023-02-13T06:15:25.706Z,0.80
2023-02-13T06:16:27.298Z,0.80
2023-02-13T06:17:28.692Z,0.80
2023-02-13T06:18:30.141Z,0.70
2023-02-13T06:19:31.682Z,0.80
2023-02-13T06:20:34.233Z,0.70
2023-02-13T06:21:37.951Z,0.80
2023-02-13T06:22:39.378Z,0.80
2023-02-13T06:23:40.957Z,0.80
2023-02-13T06:24:42.546Z,0.80
2023-02-13T06:25:44.108Z,0.70
2023-02-13T06:26:45.563Z,0.80
2023-02-13T06:27:47.055Z,0.70
2023-02-13T06:28:49.661Z,0.80
2023-02-13T06:29:51.124Z,0.70
2023-02-13T06:30:52.721Z,0.70
2023-02-13T06:31:54.323Z,0.80
2023-02-13T06:32:56.327Z,0.70
2023-02-13T06:33:57.832Z,0.70
2023-02-13T06:34:59.478Z,0.70
2023-02-13T06:36:01.330Z,0.70
2023-02-13T06:37:02.927Z,0.70
2023-02-13T06:38:04.431Z,0.70
2023-02-13T06:39:05.895Z,0.60
2023-02-13T06:40:08.435Z,0.60
2023-02-13T06:41:10.214Z,0.60
2023-02-13T06:42:11.652Z,0.60
2023-02-13T06:43:13.994Z,0.60
2023-02-13T06:44:15.453Z,0.60
2023-02-13T06:45:17.020Z,0.60
2023-02-13T06:46:18.521Z,0.70
2023-02-13T06:47:19.951Z,0.70
2023-02-13T06:48:21.613Z,0.60
2023-02-13T06:49:23.012Z,0.60
2023-02-13T06:50:24.488Z,0.60
2023-02-13T06:51:26.014Z,0.60
2023-02-13T06:52:27.872Z,0.70
2023-02-13T06:53:30.252Z,0.80
2023-02-13T06:54:46.334Z,0.70
2023-02-13T06:55:48.894Z,0.70
2023-02-13T06:56:50.251Z,0.60
2023-02-13T06:57:51.790Z,0.60
2023-02-13T06:58:53.374Z,0.70
2023-02-13T06:59:54.842Z,0.70
2023-02-13T07:00:56.667Z,0.70
2023-02-13T07:01:58.574Z,0.80
2023-02-13T07:03:04.974Z,0.80
2023-02-13T07:04:06.444Z,0.70
2023-02-13T07:05:09.120Z,0.70
2023-02-13T07:06:10.524Z,0.80
2023-02-13T07:07:12.148Z,0.80
2023-02-13T07:08:13.798Z,0.90
2023-02-13T07:09:15.341Z,0.80
2023-02-13T07:10:16.850Z,0.80
2023-02-13T07:11:20.187Z,0.80
2023-02-13T07:12:21.751Z,0.70
2023-02-13T07:13:23.405Z,0.70
2023-02-13T07:14:25.001Z,0.70
2023-02-13T07:15:26.499Z,0.70
2023-02-13T07:16:28.068Z,0.70
2023-02-13T07:17:30.200Z,0.70
2023-02-13T07:18:31.725Z,0.70
2023-02-13T07:19:33.603Z,0.70
2023-02-13T07:20:35.219Z,0.70
2023-02-13T07:21:38.135Z,0.70
2023-02-13T07:22:39.959Z,0.70
2023-02-13T07:23:41.552Z,0.70
2023-02-13T07:24:43.185Z,0.70
2023-02-13T07:25:45.700Z,0.70
2023-02-13T07:26:47.841Z,0.70
2023-02-13T07:27:49.580Z,0.80
2023-02-13T07:28:56.947Z,0.80
2023-02-13T07:30:07.881Z,0.90
2023-02-13T07:31:09.924Z,0.90
2023-02-13T07:32:12.145Z,0.90
2023-02-13T07:33:13.843Z,1.10
2023-02-13T07:34:15.508Z,1.10
2023-02-13T07:35:17.108Z,1.10
2023-02-13T07:36:18.661Z,1.20
2023-02-13T07:37:20.419Z,1.30
2023-02-13T07:38:21.929Z,1.30
2023-02-13T07:39:23.451Z,1.30
2023-02-13T07:40:24.931Z,1.40
2023-02-13T07:41:26.857Z,1.40
2023-02-13T07:42:28.630Z,1.50
2023-02-13T07:43:31.322Z,1.50
2023-02-13T07:44:33.718Z,1.60
2023-02-13T07:45:35.410Z,1.60
2023-02-13T07:46:37.988Z,1.70
2023-02-13T07:47:39.629Z,1.70
2023-02-13T07:48:41.342Z,1.80
2023-02-13T07:49:43.374Z,1.80
2023-02-13T07:50:45.017Z,1.90
2023-02-13T07:51:46.606Z,1.90
2023-02-13T07:53:06.416Z,1.90
2023-02-13T07:54:07.987Z,2.00
2023-02-13T07:55:11.650Z,2.10
2023-02-13T07:56:13.781Z,2.10
2023-02-13T07:57:16.771Z,2.20
2023-02-13T07:58:18.700Z,2.20
2023-02-13T07:59:20.525Z,2.20
2023-02-13T08:00:22.960Z,2.30
2023-02-13T08:01:24.744Z,2.30
2023-02-13T08:02:26.433Z,2.30
2023-02-13T08:03:28.466Z,2.20
2023-02-13T08:04:30.425Z,2.10
2023-02-13T08:05:33.170Z,2.10
2023-02-13T08:06:34.862Z,2.10
2023-02-13T08:07:36.582Z,2.10
2023-02-13T08:08:38.882Z,2.20
2023-02-13T08:09:59.174Z,2.20
2023-02-13T08:11:25.854Z,2.30
2023-02-13T08:12:27.561Z,2.30
2023-02-13T08:13:29.596Z,2.40
2023-02-13T08:14:31.580Z,2.50
2023-02-13T08:15:33.403Z,2.60
2023-02-13T08:16:35.133Z,2.60
2023-02-13T08:17:36.798Z,2.70
2023-02-13T08:18:38.288Z,2.70
2023-02-13T08:19:39.824Z,2.80
2023-02-13T08:20:41.898Z,2.80
2023-02-13T08:21:43.680Z,2.90
2023-02-13T08:22:45.252Z,3.00
2023-02-13T08:23:49.009Z,3.00
2023-02-13T08:24:50.534Z,3.10
2023-02-13T08:25:52.849Z,3.20
2023-02-13T08:26:58.844Z,3.30
2023-02-13T08:28:01.063Z,3.30
2023-02-13T08:29:02.921Z,3.40
2023-02-13T08:30:06.032Z,3.40
2023-02-13T08:31:12.223Z,3.40
2023-02-13T08:32:13.860Z,3.40
2023-02-13T08:33:15.430Z,3.40
2023-02-13T08:34:17.080Z,3.50
2023-02-13T08:35:18.610Z,3.50
2023-02-13T08:36:21.040Z,3.50
2023-02-13T08:37:24.652Z,3.50
2023-02-13T08:38:26.425Z,3.10
2023-02-13T08:39:28.077Z,2.90
2023-02-13T08:40:29.742Z,2.70
2023-02-13T08:41:31.285Z,2.70
2023-02-13T08:42:32.819Z,2.70
2023-02-13T08:43:34.384Z,2.60
2023-02-13T08:44:36.085Z,2.60
2023-02-13T08:45:38.564Z,2.50
2023-02-13T08:46:40.296Z,2.40
2023-02-13T08:47:42.160Z,2.40
2023-02-13T08:48:44.474Z,2.30
2023-02-13T08:49:46.147Z,2.30
2023-02-13T08:50:47.862Z,2.30
2023-02-13T08:51:50.293Z,2.30
2023-02-13T08:52:52.023Z,2.40
2023-02-13T08:53:53.656Z,2.30
2023-02-13T08:54:55.317Z,2.40
2023-02-13T08:55:58.366Z,2.40
2023-02-13T08:57:00.036Z,2.40
2023-02-13T08:58:03.276Z,2.50
2023-02-13T08:59:04.808Z,2.60
2023-02-13T09:00:09.035Z,2.70
2023-02-13T09:01:10.677Z,2.70
2023-02-13T09:02:12.960Z,2.70
2023-02-13T09:03:14.590Z,2.70
2023-02-13T09:04:18.162Z,2.80
2023-02-13T09:05:20.157Z,2.80
2023-02-13T09:06:21.948Z,2.80
2023-02-13T09:07:23.489Z,2.90
2023-02-13T09:08:25.000Z,2.90
2023-02-13T09:09:27.150Z,3.00
2023-02-13T09:10:28.863Z,3.00
2023-02-13T09:11:30.425Z,3.10
2023-02-13T09:12:31.946Z,3.10
2023-02-13T09:13:35.422Z,3.10
2023-02-13T09:14:39.283Z,3.20
2023-02-13T09:15:41.543Z,3.20
2023-02-13T09:16:43.154Z,3.10
2023-02-13T09:17:44.718Z,3.10
2023-02-13T09:18:50.605Z,3.00
2023-02-13T09:19:52.214Z,3.00
2023-02-13T09:21:02.303Z,3.10
2023-02-13T09:22:04.124Z,3.10
2023-02-13T09:23:05.993Z,3.10
2023-02-13T09:24:09.168Z,3.10
2023-02-13T09:25:11.294Z,3.20
2023-02-13T09:26:15.227Z,3.20
2023-02-13T09:27:16.712Z,3.30
2023-02-13T09:28:18.525Z,3.30
2023-02-13T09:29:21.303Z,3.40
2023-02-13T09:30:23.965Z,3.40
2023-02-13T09:31:29.105Z,3.50
2023-02-13T09:32:31.058Z,3.50
2023-02-13T09:33:32.618Z,3.50
2023-02-13T09:34:34.752Z,3.60
2023-02-13T09:35:36.857Z,3.60
2023-02-13T09:36:38.438Z,3.70
2023-02-13T09:37:40.310Z,3.80
2023-02-13T09:38:44.097Z,3.80
2023-02-13T09:39:46.345Z,3.90
2023-02-13T09:40:53.880Z,3.90
2023-02-13T09:41:58.041Z,3.90
2023-02-13T09:43:13.470Z,3.90
2023-02-13T09:44:34.323Z,3.90
2023-02-13T09:45:38.052Z,4.00
2023-02-13T09:46:41.083Z,4.10
2023-02-13T09:47:44.609Z,4.10
2023-02-13T09:48:49.989Z,4.10
2023-02-13T09:50:00.138Z,4.10
2023-02-13T09:51:01.760Z,4.10
2023-02-13T09:52:04.002Z,4.20
2023-02-13T09:53:05.601Z,4.20
2023-02-13T09:54:08.917Z,4.30
2023-02-13T09:55:24.082Z,4.30
2023-02-13T09:56:51.054Z,4.30
2023-02-13T09:58:21.936Z,4.40
2023-02-13T09:59:51.191Z,4.50
2023-02-13T10:00:57.457Z,4.50
2023-02-13T10:02:12.564Z,4.50
2023-02-13T10:03:23.746Z,4.60
2023-02-13T10:04:48.902Z,4.70
2023-02-13T10:05:57.311Z,4.70
2023-02-13T10:07:11.737Z,4.80
2023-02-13T10:08:36.644Z,4.80
2023-02-13T10:10:02.660Z,4.80
2023-02-13T10:11:39.895Z,4.90
2023-02-13T10:12:50.900Z,4.90
2023-02-13T10:13:55.412Z,4.90
2023-02-13T10:15:14.803Z,5.00
2023-02-13T10:16:18.334Z,5.00
2023-02-13T10:17:40.390Z,5.20
2023-02-13T10:19:04.087Z,5.10
2023-02-13T10:20:19.206Z,5.20
2023-02-13T10:21:26.924Z,5.20
2023-02-13T10:22:34.479Z,5.30
2023-02-13T10:23:48.544Z,5.30
2023-02-13T10:24:54.496Z,5.30
2023-02-13T10:26:00.990Z,5.30
2023-02-13T10:27:14.716Z,5.30
2023-02-13T10:28:26.658Z,5.40
2023-02-13T10:30:02.549Z,5.50
2023-02-13T10:31:24.188Z,5.50
2023-02-13T10:33:18.671Z,5.60
2023-02-13T10:34:25.224Z,5.60
2023-02-13T10:35:33.350Z,5.70
2023-02-13T10:36:37.852Z,5.70
2023-02-13T10:37:39.599Z,5.80
2023-02-13T10:38:50.975Z,5.90
2023-02-13T10:39:56.280Z,5.90
2023-02-13T10:41:23.315Z,5.90
2023-02-13T10:42:40.375Z,5.90
2023-02-13T10:44:02.432Z,5.90
2023-02-13T10:45:45.566Z,5.90
2023-02-13T10:47:03.387Z,6.10
2023-02-13T10:48:26.006Z,6.10
2023-02-13T10:49:54.428Z,6.10
2023-02-13T10:51:01.483Z,6.20
2023-02-13T10:52:25.854Z,6.30
2023-02-13T10:53:46.824Z,6.30
2023-02-13T10:54:57.435Z,6.30
2023-02-13T10:56:19.847Z,6.50
2023-02-13T10:57:30.608Z,6.40
2023-02-13T10:58:43.953Z,6.50
2023-02-13T10:59:57.532Z,6.50
2023-02-13T11:01:10.846Z,6.50
2023-02-13T11:02:30.434Z,6.50
2023-02-13T11:03:32.356Z,6.60
2023-02-13T11:04:34.191Z,6.60
2023-02-13T11:05:40.167Z,6.70
2023-02-13T11:06:58.699Z,6.70
2023-02-13T11:08:02.106Z,6.80
2023-02-13T11:09:06.720Z,6.80
2023-02-13T11:10:23.258Z,6.80
2023-02-13T11:11:41.330Z,6.80
2023-02-13T11:12:43.586Z,6.80
2023-02-13T11:13:45.065Z,6.80
2023-02-13T11:15:00.138Z,6.80
2023-02-13T11:16:07.727Z,6.90
2023-02-13T11:17:18.632Z,6.90
2023-02-13T11:18:22.167Z,6.80
2023-02-13T11:19:30.391Z,6.70
2023-02-13T11:20:49.878Z,6.70
2023-02-13T11:21:57.876Z,6.80
2023-02-13T11:23:24.145Z,6.80
2023-02-13T11:24:27.904Z,6.90
2023-02-13T11:25:31.497Z,7.00
2023-02-13T11:26:36.164Z,7.00
2023-02-13T11:27:39.826Z,7.00
2023-02-13T11:28:55.233Z,7.00
2023-02-13T11:30:00.465Z,7.00
2023-02-13T11:31:19.025Z,7.00
2023-02-13T11:32:24.361Z,7.00
2023-02-13T11:33:28.551Z,7.10
2023-02-13T11:34:32.634Z,7.10
2023-02-13T11:35:37.483Z,7.20
2023-02-13T11:36:39.140Z,7.20
2023-02-13T11:37:40.807Z,7.20
2023-02-13T11:38:42.440Z,7.30
2023-02-13T11:39:48.270Z,7.20
2023-02-13T11:41:04.540Z,7.20
2023-02-13T11:42:15.388Z,7.20
2023-02-13T11:43:30.787Z,7.20
2023-02-13T11:44:33.420Z,7.20
2023-02-13T11:45:35.297Z,7.20
2023-02-13T11:46:51.711Z,7.20
2023-02-13T11:47:55.766Z,7.20
2023-02-13T11:49:02.638Z,7.20
2023-02-13T11:50:07.129Z,7.30
2023-02-13T11:51:08.570Z,7.40
2023-02-13T11:52:36.883Z,7.40
2023-02-13T11:53:39.897Z,7.50
2023-02-13T11:54:45.489Z,7.50
2023-02-13T11:56:07.313Z,7.50
2023-02-13T11:57:22.773Z,7.50
2023-02-13T11:58:27.795Z,7.60
2023-02-13T11:59:33.471Z,7.60
2023-02-13T12:00:39.916Z,7.70
2023-02-13T12:01:41.891Z,7.70
2023-02-13T12:02:49.992Z,7.70
2023-02-13T12:04:06.096Z,7.70
2023-02-13T12:05:22.579Z,7.70
2023-02-13T12:06:24.261Z,7.70
2023-02-13T12:07:28.333Z,7.70
2023-02-13T12:08:32.251Z,7.70
2023-02-13T12:09:33.793Z,7.80
2023-02-13T12:10:38.283Z,7.90
2023-02-13T12:11:49.598Z,7.90
2023-02-13T12:12:55.739Z,8.00
2023-02-13T12:13:58.484Z,8.00
2023-02-13T12:15:04.121Z,8.00
2023-02-13T12:16:29.426Z,8.00
2023-02-13T12:17:32.777Z,7.90
2023-02-13T12:18:41.876Z,8.00
2023-02-13T12:19:51.769Z,8.00
2023-02-13T12:21:01.076Z,8.00
2023-02-13T12:22:56.974Z,7.90
2023-02-13T12:24:13.597Z,7.90
2023-02-13T12:25:56.314Z,8.00
2023-02-13T12:27:18.265Z,8.00
2023-02-13T12:28:43.615Z,8.00
2023-02-13T12:29:58.034Z,8.10
2023-02-13T12:31:17.404Z,8.10
2023-02-13T12:32:18.939Z,8.10
2023-02-13T12:33:48.296Z,8.20
2023-02-13T12:35:11.491Z,8.20
2023-02-13T12:36:19.236Z,8.20
2023-02-13T12:37:45.114Z,8.20
2023-02-13T12:39:04.970Z,8.20
2023-02-13T12:40:31.212Z,8.30
2023-02-13T12:42:01.469Z,8.30
2023-02-13T12:43:35.152Z,8.30
2023-02-13T12:44:49.759Z,8.30
2023-02-13T12:46:00.527Z,8.20
2023-02-13T12:47:07.757Z,8.20
2023-02-13T12:48:30.125Z,8.20
2023-02-13T12:49:56.283Z,8.30
2023-02-13T12:51:07.705Z,8.30
2023-02-13T12:52:36.562Z,8.40
2023-02-13T12:54:11.897Z,8.40
2023-02-13T12:55:23.720Z,8.40
2023-02-13T12:56:43.983Z,8.40
2023-02-13T12:57:54.616Z,8.50
2023-02-13T12:59:05.327Z,8.50
2023-02-13T13:00:38.700Z,8.50
2023-02-13T13:01:59.684Z,8.60
2023-02-13T13:03:18.561Z,8.70
2023-02-13T13:04:40.395Z,8.80
2023-02-13T13:06:03.580Z,8.80
2023-02-13T13:07:27.400Z,8.70
2023-02-13T13:08:34.825Z,8.80
2023-02-13T13:09:42.661Z,8.70
2023-02-13T13:10:59.776Z,8.70
2023-02-13T13:12:18.290Z,8.80
2023-02-13T13:13:31.956Z,8.80
2023-02-13T13:15:19.603Z,8.90
2023-02-13T13:16:26.945Z,8.90
2023-02-13T13:17:46.860Z,9.00
2023-02-13T13:19:11.652Z,9.00
2023-02-13T13:20:31.246Z,9.00
2023-02-13T13:21:41.369Z,9.00
2023-02-13T13:23:24.968Z,9.10
2023-02-13T13:24:59.299Z,9.10
2023-02-13T13:26:32.205Z,9.10
2023-02-13T13:27:44.150Z,9.10
2023-02-13T13:28:49.479Z,9.10
2023-02-13T13:30:18.040Z,9.20
2023-02-13T13:31:21.250Z,9.20
2023-02-13T13:32:23.749Z,9.20
2023-02-13T13:33:26.799Z,9.20
2023-02-13T13:34:30.621Z,9.30
2023-02-13T13:35:34.681Z,9.40
2023-02-13T13:37:14.932Z,9.40
2023-02-13T13:38:29.420Z,9.30
2023-02-13T13:39:49.320Z,9.30
2023-02-13T13:41:05.540Z,9.30
2023-02-13T13:42:14.462Z,9.40
2023-02-13T13:43:21.351Z,9.40
2023-02-13T13:44:37.795Z,9.50
2023-02-13T13:45:49.629Z,9.50
2023-02-13T13:47:07.690Z,9.50
2023-02-13T13:48:21.166Z,9.60
2023-02-13T13:49:37.148Z,9.60
2023-02-13T13:50:41.889Z,9.70
2023-02-13T13:51:44.003Z,9.70
2023-02-13T13:53:09.846Z,9.80
2023-02-13T13:54:11.348Z,9.80
2023-02-13T13:55:47.729Z,9.90
2023-02-13T13:56:57.082Z,9.90
2023-02-13T13:58:00.094Z,9.90
2023-02-13T13:59:01.549Z,10.00
2023-02-13T14:00:09.073Z,10.00
2023-02-13T14:01:25.501Z,10.00
2023-02-13T14:02:38.588Z,10.10
2023-02-13T14:03:40.788Z,10.10
2023-02-13T14:05:00.685Z,10.00
2023-02-13T14:06:06.096Z,10.00
2023-02-13T14:07:16.263Z,10.10
2023-02-13T14:08:39.669Z,10.00
2023-02-13T14:09:43.420Z,10.00
2023-02-13T14:11:02.051Z,10.00
2023-02-13T14:12:25.987Z,9.90
2023-02-13T14:13:45.942Z,9.80
2023-02-13T14:14:47.647Z,9.80
2023-02-13T14:15:51.611Z,9.60
2023-02-13T14:16:58.042Z,9.50
2023-02-13T14:18:01.358Z,9.40
2023-02-13T14:19:03.506Z,9.30
2023-02-13T14:20:37.886Z,9.20
2023-02-13T14:21:39.337Z,9.10
2023-02-13T14:22:41.275Z,8.90
2023-02-13T14:23:42.770Z,8.80
2023-02-13T14:24:59.734Z,8.70
2023-02-13T14:26:12.401Z,8.70
2023-02-13T14:27:25.353Z,8.50
2023-02-13T14:28:27.743Z,8.50
2023-02-13T14:29:34.371Z,8.40
2023-02-13T14:30:40.446Z,8.30
2023-02-13T14:32:14.500Z,8.20
2023-02-13T14:33:31.160Z,8.10
2023-02-13T14:34:39.154Z,8.10
2023-02-13T14:35:40.549Z,8.00
2023-02-13T14:36:45.423Z,8.00
2023-02-13T14:37:52.414Z,7.90
2023-02-13T14:38:58.975Z,7.80
2023-02-13T14:40:18.820Z,7.80
2023-02-13T14:41:51.080Z,7.80
2023-02-13T14:43:01.460Z,7.70
2023-02-13T14:44:03.046Z,7.60
2023-02-13T14:45:11.066Z,7.60
2023-02-13T14:46:20.102Z,7.50
2023-02-13T14:47:40.356Z,7.50
2023-02-13T14:48:52.407Z,7.50
2023-02-13T14:49:55.337Z,7.40
2023-02-13T14:50:58.090Z,7.40
2023-02-13T14:52:04.479Z,7.40
2023-02-13T14:53:21.176Z,7.30
2023-02-13T14:54:28.573Z,7.20
2023-02-13T14:55:38.179Z,7.20
2023-02-13T14:56:39.668Z,7.20
2023-02-13T14:57:47.075Z,7.20
2023-02-13T14:59:11.696Z,7.10
2023-02-13T15:00:28.395Z,7.10
2023-02-13T15:01:37.359Z,7.10
2023-02-13T15:02:49.253Z,7.00
2023-02-13T15:04:00.049Z,7.00
2023-02-13T15:05:34.970Z,7.00
2023-02-13T15:06:43.345Z,7.00
2023-02-13T15:08:02.345Z,6.90